createdAt,value
2016-01-22T00:00:52.000Z,1022.29
2016-01-22T00:01:52.017Z,1022.33
2016-01-22T00:02:52.124Z,1022.33
2016-01-22T00:03:52.130Z,1022.35
2016-01-22T00:04:52.190Z,1022.37
2016-01-22T00:05:52.337Z,1022.36
2016-01-22T00:06:52.352Z,1022.43
2016-01-22T00:07:52.357Z,1022.35
2016-01-22T00:08:52.417Z,1022.39
2016-01-22T00:09:52.492Z,1022.36
2016-01-22T00:10:52.527Z,1022.32
2016-01-22T00:11:52.572Z,1022.32
2016-01-22T00:12:52.641Z,1022.35
2016-01-22T00:13:52.698Z,1022.33
2016-01-22T00:14:52.753Z,1022.29
2016-01-22T00:15:52.799Z,1022.27
2016-01-22T00:16:52.852Z,1022.26
2016-01-22T00:17:52.910Z,1022.29
2016-01-22T00:18:52.968Z,1022.27
2016-01-22T00:19:53.020Z,1022.25
2016-01-22T00:20:53.090Z,1022.23
2016-01-22T00:21:53.138Z,1022.23
2016-01-22T00:22:53.195Z,1022.21
2016-01-22T00:23:53.245Z,1022.17
2016-01-22T00:24:53.302Z,1022.14
2016-01-22T00:25:53.364Z,1022.17
2016-01-22T00:26:53.408Z,1022.21
2016-01-22T00:27:53.477Z,1022.17
2016-01-22T00:28:53.528Z,1022.18
2016-01-22T00:29:53.580Z,1022.18
2016-01-22T00:30:53.642Z,1022.14
2016-01-22T00:31:53.694Z,1022.14
2016-01-22T00:32:53.750Z,1022.17
2016-01-22T00:33:53.800Z,1022.17
2016-01-22T00:34:53.863Z,1022.17
2016-01-22T00:35:53.920Z,1022.19
2016-01-22T00:36:53.971Z,1022.18
2016-01-22T00:37:54.036Z,1022.15
2016-01-22T00:38:54.091Z,1022.16
2016-01-22T00:39:54.141Z,1022.15
2016-01-22T00:40:54.205Z,1022.11
2016-01-22T00:41:54.247Z,1022.14
2016-01-22T00:42:54.312Z,1022.14
2016-01-22T00:43:54.358Z,1022.12
2016-01-22T00:44:54.413Z,1022.16
2016-01-22T00:45:54.484Z,1022.13
2016-01-22T00:46:54.531Z,1022.16
2016-01-22T00:47:54.583Z,1022.13
2016-01-22T00:48:54.644Z,1022.19
2016-01-22T00:49:54.704Z,1022.16
2016-01-22T00:50:54.758Z,1022.2
2016-01-22T00:51:54.815Z,1022.14
2016-01-22T00:52:54.874Z,1022.19
2016-01-22T00:53:54.927Z,1022.18
2016-01-22T00:54:54.984Z,1022.14
2016-01-22T00:55:55.043Z,1022.14
2016-01-22T00:56:55.084Z,1022.1
2016-01-22T00:57:55.155Z,1022.12
2016-01-22T00:58:55.198Z,1022.1
2016-01-22T00:59:55.253Z,1022.15
2016-01-22T01:00:55.309Z,1022.1
2016-01-22T01:01:55.370Z,1022.16
2016-01-22T01:02:55.423Z,1022.13
2016-01-22T01:03:55.481Z,1022.13
2016-01-22T01:04:55.534Z,1022.18
2016-01-22T01:05:55.597Z,1022.22
2016-01-22T01:06:55.654Z,1022.19
2016-01-22T01:07:55.706Z,1022.17
2016-01-22T01:08:55.766Z,1022.17
2016-01-22T01:09:55.818Z,1022.17
2016-01-22T01:10:55.872Z,1022.2
2016-01-22T01:11:55.927Z,1022.16
2016-01-22T01:12:55.982Z,1022.14
2016-01-22T01:13:56.041Z,1022.16
2016-01-22T01:14:56.093Z,1022.18
2016-01-22T01:15:56.154Z,1022.17
2016-01-22T01:16:56.214Z,1022.17
2016-01-22T01:17:56.260Z,1022.15
2016-01-22T01:18:56.327Z,1022.13
2016-01-22T01:19:56.382Z,1022.14
2016-01-22T01:20:56.439Z,1022.15
2016-01-22T01:21:56.490Z,1022.13
2016-01-22T01:22:56.549Z,1022.15
2016-01-22T01:23:56.607Z,1022.1
2016-01-22T01:24:56.649Z,1022.12
2016-01-22T01:25:56.716Z,1022.08
2016-01-22T01:26:56.763Z,1022.12
2016-01-22T01:27:56.830Z,1022.09
2016-01-22T01:28:56.885Z,1022.12
2016-01-22T01:29:56.939Z,1022.11
2016-01-22T01:30:56.995Z,1022.08
2016-01-22T01:31:57.053Z,1022.07
2016-01-22T01:32:57.103Z,1022.06
2016-01-22T01:33:57.161Z,1022.08
2016-01-22T01:34:57.222Z,1022.07
2016-01-22T01:35:57.270Z,1022.07
2016-01-22T01:36:57.322Z,1022.06
2016-01-22T01:37:57.376Z,1022.06
2016-01-22T01:38:57.444Z,1022.08
2016-01-22T01:39:57.488Z,1022.09
2016-01-22T01:40:57.559Z,1022.05
2016-01-22T01:41:57.601Z,1022.04
2016-01-22T01:42:57.668Z,1022.01
2016-01-22T01:43:57.727Z,1021.99
2016-01-22T01:44:57.790Z,1021.97
2016-01-22T01:45:57.825Z,1021.97
2016-01-22T01:46:57.884Z,1021.96
2016-01-22T01:47:57.939Z,1021.94
2016-01-22T01:48:57.997Z,1021.94
2016-01-22T01:49:58.049Z,1021.9
2016-01-22T01:50:58.106Z,1021.89
2016-01-22T01:51:58.163Z,1021.89
2016-01-22T01:52:58.226Z,1021.88
2016-01-22T01:53:58.276Z,1021.85
2016-01-22T01:54:58.336Z,1021.83
2016-01-22T01:55:58.394Z,1021.82
2016-01-22T01:56:58.451Z,1021.8
2016-01-22T01:57:58.502Z,1021.81
2016-01-22T01:58:58.558Z,1021.78
2016-01-22T01:59:58.615Z,1021.77
2016-01-22T02:00:58.673Z,1021.8
2016-01-22T02:01:58.725Z,1021.81
2016-01-22T02:02:58.778Z,1021.77
2016-01-22T02:03:58.844Z,1021.83
2016-01-22T02:04:58.897Z,1021.84
2016-01-22T02:05:58.954Z,1021.8
2016-01-22T02:06:58.998Z,1021.79
2016-01-22T02:07:59.065Z,1021.81
2016-01-22T02:08:59.122Z,1021.81
2016-01-22T02:09:59.177Z,1021.83
2016-01-22T02:10:59.236Z,1021.84
2016-01-22T02:11:59.304Z,1021.84
2016-01-22T02:12:59.344Z,1021.87
2016-01-22T02:13:59.397Z,1021.86
2016-01-22T02:14:59.452Z,1021.88
2016-01-22T02:15:59.502Z,1021.84
2016-01-22T02:16:59.563Z,1021.86
2016-01-22T02:17:59.617Z,1021.86
2016-01-22T02:18:59.677Z,1021.81
2016-01-22T02:19:59.734Z,1021.82
2016-01-22T02:20:59.789Z,1021.81
2016-01-22T02:21:59.840Z,1021.83
2016-01-22T02:22:59.928Z,1021.86
2016-01-22T02:23:59.955Z,1021.85
2016-01-22T02:25:00.007Z,1021.87
2016-01-22T02:26:00.077Z,1021.89
2016-01-22T02:27:00.130Z,1021.89
2016-01-22T02:28:00.181Z,1021.9
2016-01-22T02:29:00.250Z,1021.88
2016-01-22T02:30:00.295Z,1021.93
2016-01-22T02:31:00.345Z,1021.97
2016-01-22T02:32:00.404Z,1021.97
2016-01-22T02:33:00.462Z,1022.01
2016-01-22T02:34:00.519Z,1022.01
2016-01-22T02:35:00.569Z,1022.05
2016-01-22T02:36:00.626Z,1022.04
2016-01-22T02:37:00.683Z,1022.05
2016-01-22T02:38:00.734Z,1022.03
2016-01-22T02:39:00.804Z,1022.04
2016-01-22T02:40:00.857Z,1022.03
2016-01-22T02:41:00.909Z,1022
2016-01-22T02:42:00.968Z,1022.03
2016-01-22T02:43:01.028Z,1022.01
2016-01-22T02:44:01.081Z,1021.96
2016-01-22T02:45:01.139Z,1021.98
2016-01-22T02:46:01.273Z,1021.99
2016-01-22T02:47:01.248Z,1021.93
2016-01-22T02:48:01.300Z,1021.9
2016-01-22T02:49:01.360Z,1021.93
2016-01-22T02:50:01.412Z,1021.93
2016-01-22T02:51:01.467Z,1021.91
2016-01-22T02:52:01.519Z,1021.98
2016-01-22T02:53:01.585Z,1021.98
2016-01-22T02:54:01.643Z,1022.03
2016-01-22T02:55:01.694Z,1022.04
2016-01-22T02:56:01.747Z,1022.01
2016-01-22T02:57:01.799Z,1022.04
2016-01-22T02:58:01.856Z,1022.02
2016-01-22T02:59:01.911Z,1022.07
2016-01-22T03:00:01.977Z,1022.07
2016-01-22T03:01:02.035Z,1022.07
2016-01-22T03:02:02.085Z,1022.08
2016-01-22T03:03:02.140Z,1022.05
2016-01-22T03:04:02.191Z,1022.03
2016-01-22T03:05:02.248Z,1022
2016-01-22T03:06:02.304Z,1021.99
2016-01-22T03:07:02.357Z,1021.94
2016-01-22T03:08:02.417Z,1021.95
2016-01-22T03:09:02.483Z,1021.91
2016-01-22T03:10:02.537Z,1021.97
2016-01-22T03:11:02.593Z,1021.97
2016-01-22T03:12:02.644Z,1021.96
2016-01-22T03:13:02.705Z,1021.95
2016-01-22T03:14:02.755Z,1021.94
2016-01-22T03:15:02.811Z,1021.89
2016-01-22T03:16:02.862Z,1021.92
2016-01-22T03:17:02.917Z,1021.91
2016-01-22T03:18:02.975Z,1021.94
2016-01-22T03:19:03.051Z,1021.99
2016-01-22T03:20:03.094Z,1021.96
2016-01-22T03:21:03.144Z,1021.98
2016-01-22T03:22:03.197Z,1021.97
2016-01-22T03:23:03.267Z,1021.91
2016-01-22T03:24:03.309Z,1021.92
2016-01-22T03:25:03.368Z,1021.99
2016-01-22T03:26:03.440Z,1021.99
2016-01-22T03:27:03.491Z,1022
2016-01-22T03:28:03.543Z,1022.05
2016-01-22T03:29:03.599Z,1021.99
2016-01-22T03:30:03.652Z,1022.05
2016-01-22T03:31:03.718Z,1022.06
2016-01-22T03:32:03.769Z,1022.07
2016-01-22T03:33:03.826Z,1022.06
2016-01-22T03:34:03.879Z,1022.08
2016-01-22T03:35:03.931Z,1022.08
2016-01-22T03:36:03.988Z,1022.05
2016-01-22T03:37:04.054Z,1022.06
2016-01-22T03:38:04.109Z,1022.03
2016-01-22T03:39:04.160Z,1022.03
2016-01-22T03:40:04.205Z,1022.01
2016-01-22T03:41:04.276Z,1022.03
2016-01-22T03:42:04.327Z,1021.97
2016-01-22T03:43:04.386Z,1021.98
2016-01-22T03:44:04.455Z,1021.99
2016-01-22T03:45:04.495Z,1021.98
2016-01-22T03:46:04.536Z,1021.95
2016-01-22T03:47:04.589Z,1021.88
2016-01-22T03:48:04.618Z,1021.89
2016-01-22T03:49:04.673Z,1021.89
2016-01-22T03:50:04.716Z,1021.87
2016-01-22T03:51:04.763Z,1021.87
2016-01-22T03:52:04.812Z,1021.9
2016-01-22T03:53:04.875Z,1021.92
2016-01-22T03:54:04.925Z,1021.91
2016-01-22T03:55:04.971Z,1021.94
2016-01-22T03:56:05.025Z,1021.95
2016-01-22T03:57:05.090Z,1021.92
2016-01-22T03:58:05.144Z,1021.95
2016-01-22T03:59:05.194Z,1021.94
2016-01-22T04:00:05.243Z,1021.9
2016-01-22T04:01:05.298Z,1021.88
2016-01-22T04:02:05.364Z,1021.91
2016-01-22T04:03:05.419Z,1021.91
2016-01-22T04:04:05.468Z,1021.92
2016-01-22T04:05:05.526Z,1021.91
2016-01-22T04:06:05.576Z,1021.86
2016-01-22T04:07:05.635Z,1021.88
2016-01-22T04:08:05.684Z,1021.88
2016-01-22T04:09:05.738Z,1021.84
2016-01-22T04:10:05.805Z,1021.83
2016-01-22T04:11:05.857Z,1021.82
2016-01-22T04:12:05.910Z,1021.82
2016-01-22T04:13:05.963Z,1021.79
2016-01-22T04:14:06.029Z,1021.82
2016-01-22T04:15:06.085Z,1021.86
2016-01-22T04:16:06.137Z,1021.81
2016-01-22T04:17:06.187Z,1021.83
2016-01-22T04:18:06.244Z,1021.87
2016-01-22T04:19:06.309Z,1021.87
2016-01-22T04:20:06.367Z,1021.9
2016-01-22T04:21:06.433Z,1021.89
2016-01-22T04:22:06.471Z,1021.95
2016-01-22T04:23:06.526Z,1021.95
2016-01-22T04:24:06.582Z,1021.92
2016-01-22T04:25:06.648Z,1021.94
2016-01-22T04:26:06.705Z,1021.95
2016-01-22T04:27:06.758Z,1021.93
2016-01-22T04:28:06.809Z,1021.88
2016-01-22T04:29:06.869Z,1021.92
2016-01-22T04:30:06.919Z,1021.92
2016-01-22T04:31:06.987Z,1021.94
2016-01-22T04:32:07.040Z,1021.94
2016-01-22T04:33:07.091Z,1021.91
2016-01-22T04:34:07.144Z,1021.96
2016-01-22T04:35:07.199Z,1021.94
2016-01-22T04:36:07.266Z,1021.96
2016-01-22T04:37:07.319Z,1022
2016-01-22T04:38:07.373Z,1021.98
2016-01-22T04:39:07.426Z,1021.99
2016-01-22T04:40:07.476Z,1021.97
2016-01-22T04:41:07.548Z,1021.97
2016-01-22T04:42:07.601Z,1021.95
2016-01-22T04:43:07.651Z,1021.93
2016-01-22T04:44:07.707Z,1021.96
2016-01-22T04:45:07.757Z,1021.95
2016-01-22T04:46:07.827Z,1021.94
2016-01-22T04:47:07.883Z,1021.94
2016-01-22T04:48:07.924Z,1021.93
2016-01-22T04:49:07.991Z,1021.92
2016-01-22T04:50:08.047Z,1021.89
2016-01-22T04:51:08.116Z,1021.9
2016-01-22T04:52:08.151Z,1021.88
2016-01-22T04:53:08.210Z,1021.86
2016-01-22T04:54:08.277Z,1021.86
2016-01-22T04:55:08.319Z,1021.79
2016-01-22T04:56:08.388Z,1021.79
2016-01-22T04:57:08.437Z,1021.78
2016-01-22T04:58:08.489Z,1021.78
2016-01-22T04:59:08.543Z,1021.78
2016-01-22T05:00:08.609Z,1021.79
2016-01-22T05:01:08.662Z,1021.79
2016-01-22T05:02:08.717Z,1021.75
2016-01-22T05:03:08.770Z,1021.76
2016-01-22T05:04:08.825Z,1021.73
2016-01-22T05:05:08.893Z,1021.71
2016-01-22T05:06:08.945Z,1021.72
2016-01-22T05:07:08.996Z,1021.69
2016-01-22T05:08:09.050Z,1021.68
2016-01-22T05:09:09.118Z,1021.72
2016-01-22T05:10:09.170Z,1021.75
2016-01-22T05:11:09.226Z,1021.74
2016-01-22T05:12:09.279Z,1021.77
2016-01-22T05:13:09.333Z,1021.77
2016-01-22T05:14:09.383Z,1021.77
2016-01-22T05:15:09.453Z,1021.76
2016-01-22T05:16:09.508Z,1021.77
2016-01-22T05:17:09.558Z,1021.75
2016-01-22T05:18:09.611Z,1021.75
2016-01-22T05:19:09.666Z,1021.73
2016-01-22T05:20:09.733Z,1021.73
2016-01-22T05:21:09.787Z,1021.69
2016-01-22T05:22:09.837Z,1021.65
2016-01-22T05:23:09.903Z,1021.61
2016-01-22T05:24:09.955Z,1021.61
2016-01-22T05:25:10.009Z,1021.55
2016-01-22T05:26:10.071Z,1021.55
2016-01-22T05:27:10.123Z,1021.53
2016-01-22T05:28:10.177Z,1021.56
2016-01-22T05:29:10.229Z,1021.53
2016-01-22T05:30:10.284Z,1021.54
2016-01-22T05:31:10.351Z,1021.52
2016-01-22T05:32:10.404Z,1021.57
2016-01-22T05:33:10.454Z,1021.57
2016-01-22T05:34:10.520Z,1021.51
2016-01-22T05:35:10.576Z,1021.55
2016-01-22T05:36:10.628Z,1021.48
2016-01-22T05:37:10.695Z,1021.47
2016-01-22T05:38:10.735Z,1021.46
2016-01-22T05:39:10.800Z,1021.41
2016-01-22T05:40:10.852Z,1021.44
2016-01-22T05:41:10.908Z,1021.46
2016-01-22T05:42:10.961Z,1021.45
2016-01-22T05:43:11.013Z,1021.52
2016-01-22T05:44:11.069Z,1021.53
2016-01-22T05:45:11.124Z,1021.58
2016-01-22T05:46:11.192Z,1021.6
2016-01-22T05:47:11.244Z,1021.61
2016-01-22T05:48:11.330Z,1021.6
2016-01-22T05:49:11.356Z,1021.6
2016-01-22T05:50:11.422Z,1021.63
2016-01-22T05:51:11.472Z,1021.59
2016-01-22T05:52:11.527Z,1021.62
2016-01-22T05:53:11.577Z,1021.59
2016-01-22T05:54:11.631Z,1021.53
2016-01-22T05:55:11.703Z,1021.55
2016-01-22T05:56:11.753Z,1021.54
2016-01-22T05:57:11.806Z,1021.55
2016-01-22T05:58:11.873Z,1021.55
2016-01-22T05:59:11.910Z,1021.55
2016-01-22T06:00:12.011Z,1021.51
2016-01-22T06:01:12.030Z,1021.54
2016-01-22T06:02:12.080Z,1021.56
2016-01-22T06:03:12.139Z,1021.56
2016-01-22T06:04:12.204Z,1021.56
2016-01-22T06:05:12.256Z,1021.55
2016-01-22T06:06:12.310Z,1021.55
2016-01-22T06:07:12.376Z,1021.56
2016-01-22T06:08:12.427Z,1021.55
2016-01-22T06:09:12.483Z,1021.53
2016-01-22T06:10:12.535Z,1021.53
2016-01-22T06:11:12.588Z,1021.52
2016-01-22T06:12:12.654Z,1021.61
2016-01-22T06:13:12.704Z,1021.66
2016-01-22T06:14:12.763Z,1021.69
2016-01-22T06:15:12.814Z,1021.68
2016-01-22T06:16:12.880Z,1021.7
2016-01-22T06:17:12.922Z,1021.68
2016-01-22T06:18:12.990Z,1021.6
2016-01-22T06:19:13.042Z,1021.62
2016-01-22T06:20:13.095Z,1021.61
2016-01-22T06:21:13.146Z,1021.64
2016-01-22T06:22:13.214Z,1021.63
2016-01-22T06:23:13.270Z,1021.65
2016-01-22T06:24:13.321Z,1021.61
2016-01-22T06:25:13.376Z,1021.66
2016-01-22T06:26:13.442Z,1021.7
2016-01-22T06:27:13.493Z,1021.64
2016-01-22T06:28:13.545Z,1021.61
2016-01-22T06:29:13.603Z,1021.58
2016-01-22T06:30:13.653Z,1021.62
2016-01-22T06:31:13.706Z,1021.59
2016-01-22T06:32:13.757Z,1021.62
2016-01-22T06:33:13.811Z,1021.67
2016-01-22T06:34:13.867Z,1021.69
2016-01-22T06:35:13.917Z,1021.79
2016-01-22T06:36:13.984Z,1021.8
2016-01-22T06:37:14.042Z,1021.8
2016-01-22T06:38:14.093Z,1021.85
2016-01-22T06:39:14.145Z,1021.77
2016-01-22T06:40:14.201Z,1021.69
2016-01-22T06:41:14.255Z,1021.66
2016-01-22T06:42:14.305Z,1021.65
2016-01-22T06:43:14.358Z,1021.66
2016-01-22T06:44:14.410Z,1021.65
2016-01-22T06:45:14.462Z,1021.65
2016-01-22T06:46:14.513Z,1021.67
2016-01-22T06:47:14.566Z,1021.68
2016-01-22T06:48:14.615Z,1021.68
2016-01-22T06:49:14.672Z,1021.67
2016-01-22T06:50:14.723Z,1021.67
2016-01-22T06:51:14.779Z,1021.66
2016-01-22T06:52:14.829Z,1021.62
2016-01-22T06:53:14.884Z,1021.62
2016-01-22T06:54:14.937Z,1021.65
2016-01-22T06:55:14.989Z,1021.64
2016-01-22T06:56:15.039Z,1021.58
2016-01-22T06:57:15.106Z,1021.59
2016-01-22T06:58:15.145Z,1021.56
2016-01-22T06:59:15.197Z,1021.59
2016-01-22T07:00:15.267Z,1021.56
2016-01-22T07:01:15.318Z,1021.57
2016-01-22T07:02:15.369Z,1021.55
2016-01-22T07:03:15.420Z,1021.52
2016-01-22T07:04:15.474Z,1021.52
2016-01-22T07:05:15.524Z,1021.53
2016-01-22T07:06:15.578Z,1021.52
2016-01-22T07:07:15.630Z,1021.5
2016-01-22T07:08:15.683Z,1021.51
2016-01-22T07:09:15.734Z,1021.56
2016-01-22T07:10:15.790Z,1021.5
2016-01-22T07:11:15.840Z,1021.49
2016-01-22T07:12:15.909Z,1021.47
2016-01-22T07:13:15.961Z,1021.54
2016-01-22T07:14:16.014Z,1021.46
2016-01-22T07:15:16.063Z,1021.48
2016-01-22T07:16:16.176Z,1021.49
2016-01-22T07:17:16.168Z,1021.5
2016-01-22T07:18:16.297Z,1021.51
2016-01-22T07:19:16.318Z,1021.46
2016-01-22T07:20:16.338Z,1021.45
2016-01-22T07:21:16.392Z,1021.45
2016-01-22T07:22:16.443Z,1021.49
2016-01-22T07:23:16.496Z,1021.47
2016-01-22T07:24:16.549Z,1021.46
2016-01-22T07:25:16.631Z,1021.45
2016-01-22T07:26:16.730Z,1021.41
2016-01-22T07:27:16.985Z,1021.38
2016-01-22T07:28:16.761Z,1021.4
2016-01-22T07:29:16.812Z,1021.43
2016-01-22T07:30:16.864Z,1021.42
2016-01-22T07:31:16.914Z,1021.44
2016-01-22T07:32:16.972Z,1021.44
2016-01-22T07:33:17.024Z,1021.43
2016-01-22T07:34:17.090Z,1021.39
2016-01-22T07:35:17.141Z,1021.43
2016-01-22T07:36:17.194Z,1021.42
2016-01-22T07:37:17.245Z,1021.43
2016-01-22T07:38:17.297Z,1021.44
2016-01-22T07:39:17.348Z,1021.45
2016-01-22T07:40:17.401Z,1021.4
2016-01-22T07:41:17.468Z,1021.37
2016-01-22T07:42:17.520Z,1021.35
2016-01-22T07:43:17.573Z,1021.32
2016-01-22T07:44:17.625Z,1021.31
2016-01-22T07:45:18.363Z,1021.32
2016-01-22T07:46:17.727Z,1021.31
2016-01-22T07:47:17.797Z,1021.35
2016-01-22T07:48:17.848Z,1021.33
2016-01-22T07:49:17.898Z,1021.38
2016-01-22T07:50:17.950Z,1021.37
2016-01-22T07:51:18.011Z,1021.33
2016-01-22T07:52:18.062Z,1021.31
2016-01-22T07:53:18.113Z,1021.27
2016-01-22T07:54:18.163Z,1021.33
2016-01-22T07:55:18.214Z,1021.29
2016-01-22T07:56:18.282Z,1021.27
2016-01-22T07:57:18.333Z,1021.22
2016-01-22T07:58:18.385Z,1021.23
2016-01-22T07:59:18.439Z,1021.21
2016-01-22T08:00:18.489Z,1021.22
2016-01-22T08:01:18.542Z,1021.19
2016-01-22T08:02:18.593Z,1021.18
2016-01-22T08:03:18.662Z,1021.19
2016-01-22T08:04:18.713Z,1021.19
2016-01-22T08:05:18.763Z,1021.13
2016-01-22T08:06:18.820Z,1021.15
2016-01-22T08:07:18.869Z,1021.13
2016-01-22T08:08:18.920Z,1021.1
2016-01-22T08:09:18.973Z,1021.13
2016-01-22T08:10:19.039Z,1021.09
2016-01-22T08:11:19.094Z,1021.05
2016-01-22T08:12:19.145Z,1021.09
2016-01-22T08:13:19.196Z,1021.08
2016-01-22T08:14:19.263Z,1021.05
2016-01-22T08:15:19.330Z,1021.08
2016-01-22T08:16:19.367Z,1021.1
2016-01-22T08:17:19.419Z,1021.11
2016-01-22T08:18:19.472Z,1021.1
2016-01-22T08:19:19.521Z,1021.11
2016-01-22T08:20:19.590Z,1021.14
2016-01-22T08:21:19.643Z,1021.1
2016-01-22T08:22:19.698Z,1021.11
2016-01-22T08:23:19.749Z,1021.1
2016-01-22T08:24:19.799Z,1021.1
2016-01-22T08:25:19.850Z,1021.09
2016-01-22T08:26:19.907Z,1021.1
2016-01-22T08:27:19.973Z,1021.1
2016-01-22T08:28:20.023Z,1021.12
2016-01-22T08:29:20.075Z,1021.12
2016-01-22T08:30:20.128Z,1021.1
2016-01-22T08:31:20.196Z,1021.12
2016-01-22T08:32:20.247Z,1021.11
2016-01-22T08:33:20.299Z,1021.13
2016-01-22T08:34:20.352Z,1021.14
2016-01-22T08:35:20.402Z,1021.11
2016-01-22T08:36:20.469Z,1021.13
2016-01-22T08:37:20.508Z,1021.14
2016-01-22T08:38:20.575Z,1021.12
2016-01-22T08:39:20.627Z,1021.09
2016-01-22T08:40:20.678Z,1021.04
2016-01-22T08:41:20.729Z,1021.03
2016-01-22T08:42:20.798Z,1021.01
2016-01-22T08:43:20.849Z,1021
2016-01-22T08:44:20.899Z,1020.99
2016-01-22T08:45:20.953Z,1020.97
2016-01-22T08:46:21.004Z,1020.96
2016-01-22T08:47:21.066Z,1020.96
2016-01-22T08:48:21.119Z,1020.98
2016-01-22T08:49:21.170Z,1020.97
2016-01-22T08:50:21.237Z,1020.92
2016-01-22T08:51:21.290Z,1020.94
2016-01-22T08:52:21.341Z,1020.88
2016-01-22T08:53:21.393Z,1020.87
2016-01-22T08:54:21.457Z,1020.89
2016-01-22T08:55:21.511Z,1020.85
2016-01-22T08:56:21.565Z,1020.84
2016-01-22T08:57:21.616Z,1020.83
2016-01-22T08:58:21.667Z,1020.79
2016-01-22T08:59:21.729Z,1020.84
2016-01-22T09:00:21.780Z,1020.77
2016-01-22T09:01:21.833Z,1020.79
2016-01-22T09:02:21.898Z,1020.81
2016-01-22T09:03:21.949Z,1020.79
2016-01-22T09:04:21.999Z,1020.75
2016-01-22T09:05:22.254Z,1020.78
2016-01-22T09:06:22.117Z,1020.71
2016-01-22T09:07:22.264Z,1020.74
2016-01-22T09:08:22.222Z,1020.69
2016-01-22T09:09:22.272Z,1020.72
2016-01-22T09:10:22.337Z,1020.68
2016-01-22T09:11:22.420Z,1020.66
2016-01-22T09:12:22.441Z,1020.64
2016-01-22T09:13:22.495Z,1020.65
2016-01-22T09:14:22.545Z,1020.61
2016-01-22T09:15:22.613Z,1020.62
2016-01-22T09:16:22.668Z,1020.6
2016-01-22T09:17:22.722Z,1020.59
2016-01-22T09:18:22.775Z,1020.48
2016-01-22T09:19:22.831Z,1020.56
2016-01-22T09:20:22.882Z,1020.56
2016-01-22T09:21:22.933Z,1020.56
2016-01-22T09:22:22.999Z,1020.54
2016-01-22T09:23:23.052Z,1020.49
2016-01-22T09:24:23.107Z,1020.5
2016-01-22T09:25:23.172Z,1020.51
2016-01-22T09:26:23.223Z,1020.51
2016-01-22T09:27:23.273Z,1020.58
2016-01-22T09:28:23.325Z,1020.55
2016-01-22T09:29:23.379Z,1020.58
2016-01-22T09:30:23.433Z,1020.57
2016-01-22T09:31:23.500Z,1020.62
2016-01-22T09:32:23.552Z,1020.64
2016-01-22T09:33:23.603Z,1020.64
2016-01-22T09:34:23.653Z,1020.62
2016-01-22T09:35:23.725Z,1020.64
2016-01-22T09:36:23.778Z,1020.62
2016-01-22T09:37:23.828Z,1020.57
2016-01-22T09:38:23.879Z,1020.6
2016-01-22T09:39:23.933Z,1020.55
2016-01-22T09:40:23.998Z,1020.5
2016-01-22T09:41:24.050Z,1020.51
2016-01-22T09:42:24.108Z,1020.48
2016-01-22T09:43:24.159Z,1020.51
2016-01-22T09:44:24.209Z,1020.49
2016-01-22T09:45:24.275Z,1020.48
2016-01-22T09:46:24.325Z,1020.45
2016-01-22T09:47:24.395Z,1020.51
2016-01-22T09:48:24.432Z,1020.5
2016-01-22T09:49:24.488Z,1020.43
2016-01-22T09:50:24.554Z,1020.47
2016-01-22T09:51:24.604Z,1020.47
2016-01-22T09:52:24.656Z,1020.48
2016-01-22T09:53:24.725Z,1020.51
2016-01-22T09:54:24.777Z,1020.49
2016-01-22T09:55:24.826Z,1020.54
2016-01-22T09:56:24.896Z,1020.56
2016-01-22T09:57:24.947Z,1020.53
2016-01-22T09:58:24.999Z,1020.47
2016-01-22T09:59:25.051Z,1020.53
2016-01-22T10:00:25.102Z,1020.56
2016-01-22T10:01:25.169Z,1020.55
2016-01-22T10:02:25.219Z,1020.51
2016-01-22T10:03:25.273Z,1020.58
2016-01-22T10:04:25.326Z,1020.54
2016-01-22T10:05:25.392Z,1020.52
2016-01-22T10:06:25.458Z,1020.51
2016-01-22T10:07:25.499Z,1020.53
2016-01-22T10:08:25.564Z,1020.52
2016-01-22T10:09:25.614Z,1020.52
2016-01-22T10:10:25.656Z,1020.51
2016-01-22T10:11:25.740Z,1020.53
2016-01-22T10:12:25.776Z,1020.48
2016-01-22T10:13:25.826Z,1020.49
2016-01-22T10:14:25.893Z,1020.48
2016-01-22T10:15:25.943Z,1020.46
2016-01-22T10:16:25.998Z,1020.45
2016-01-22T10:17:26.050Z,1020.45
2016-01-22T10:18:26.116Z,1020.4
2016-01-22T10:19:26.167Z,1020.36
2016-01-22T10:20:26.218Z,1020.39
2016-01-22T10:21:26.285Z,1020.36
2016-01-22T10:22:26.339Z,1020.36
2016-01-22T10:23:26.389Z,1020.33
2016-01-22T10:24:26.458Z,1020.3
2016-01-22T10:25:26.510Z,1020.32
2016-01-22T10:26:26.560Z,1020.31
2016-01-22T10:27:26.612Z,1020.31
2016-01-22T10:28:26.681Z,1020.31
2016-01-22T10:29:26.734Z,1020.33
2016-01-22T10:30:26.785Z,1020.38
2016-01-22T10:31:26.835Z,1020.34
2016-01-22T10:32:26.902Z,1020.31
2016-01-22T10:33:26.956Z,1020.31
2016-01-22T10:34:27.007Z,1020.29
2016-01-22T10:35:27.072Z,1020.3
2016-01-22T10:36:27.125Z,1020.25
2016-01-22T10:37:27.176Z,1020.21
2016-01-22T10:38:27.241Z,1020.23
2016-01-22T10:39:27.294Z,1020.21
2016-01-22T10:40:27.346Z,1020.22
2016-01-22T10:41:27.397Z,1020.23
2016-01-22T10:42:27.463Z,1020.24
2016-01-22T10:43:27.516Z,1020.24
2016-01-22T10:44:27.569Z,1020.22
2016-01-22T10:45:27.622Z,1020.19
2016-01-22T10:46:27.689Z,1020.2
2016-01-22T10:47:27.739Z,1020.17
2016-01-22T10:48:27.793Z,1020.2
2016-01-22T10:49:27.843Z,1020.18
2016-01-22T10:50:27.911Z,1020.17
2016-01-22T10:51:27.966Z,1020.15
2016-01-22T10:52:28.016Z,1020.16
2016-01-22T10:53:28.069Z,1020.17
2016-01-22T10:54:28.137Z,1020.14
2016-01-22T10:55:28.184Z,1020.14
2016-01-22T10:56:28.255Z,1020.14
2016-01-22T10:57:28.305Z,1020.14
2016-01-22T10:58:28.358Z,1020.11
2016-01-22T10:59:28.408Z,1020.09
2016-01-22T11:00:28.474Z,1020.09
2016-01-22T11:01:28.526Z,1020.07
2016-01-22T11:02:28.577Z,1020.09
2016-01-22T11:03:28.642Z,1020.08
2016-01-22T11:04:28.696Z,1020.09
2016-01-22T11:05:28.755Z,1019.99
2016-01-22T11:06:28.807Z,1019.99
2016-01-22T11:07:28.902Z,1019.97
2016-01-22T11:08:28.907Z,1019.95
2016-01-22T11:09:28.961Z,1019.93
2016-01-22T11:10:29.023Z,1019.91
2016-01-22T11:11:29.090Z,1019.91
2016-01-22T11:12:29.124Z,1019.88
2016-01-22T11:13:29.190Z,1019.87
2016-01-22T11:14:29.240Z,1019.88
2016-01-22T11:15:29.290Z,1019.86
2016-01-22T11:16:29.360Z,1019.81
2016-01-22T11:17:29.414Z,1019.84
2016-01-22T11:18:29.469Z,1019.82
2016-01-22T11:19:29.519Z,1019.82
2016-01-22T11:20:29.585Z,1019.77
2016-01-22T11:21:29.638Z,1019.78
2016-01-22T11:22:29.706Z,1019.73
2016-01-22T11:23:29.743Z,1019.68
2016-01-22T11:24:29.809Z,1019.66
2016-01-22T11:25:29.859Z,1019.69
2016-01-22T11:26:29.909Z,1019.66
2016-01-22T11:27:29.980Z,1019.67
2016-01-22T11:28:30.030Z,1019.65
2016-01-22T11:29:30.081Z,1019.68
2016-01-22T11:30:30.149Z,1019.66
2016-01-22T11:31:30.199Z,1019.66
2016-01-22T11:32:30.250Z,1019.6
2016-01-22T11:33:30.316Z,1019.57
2016-01-22T11:34:30.382Z,1019.58
2016-01-22T11:35:30.417Z,1019.57
2016-01-22T11:36:30.483Z,1019.56
2016-01-22T11:37:30.536Z,1019.53
2016-01-22T11:38:30.601Z,1019.51
2016-01-22T11:39:30.637Z,1019.49
2016-01-22T11:40:30.707Z,1019.45
2016-01-22T11:41:30.820Z,1019.41
2016-01-22T11:42:30.809Z,1019.37
2016-01-22T11:43:30.874Z,1019.31
2016-01-22T11:44:30.928Z,1019.3
2016-01-22T11:45:30.979Z,1019.25
2016-01-22T11:46:31.044Z,1019.26
2016-01-22T11:47:31.095Z,1019.21
2016-01-22T11:48:31.147Z,1019.18
2016-01-22T11:49:31.261Z,1019.12
2016-01-22T11:50:31.268Z,1019.11
2016-01-22T11:51:31.320Z,1019.14
2016-01-22T11:52:31.372Z,1019.1
2016-01-22T11:53:31.438Z,1019.08
2016-01-22T11:54:31.491Z,1019.08
2016-01-22T11:55:31.809Z,1019.04
2016-01-22T11:56:31.606Z,1019.05
2016-01-22T11:57:31.657Z,1019.04
2016-01-22T11:58:31.707Z,1019.01
2016-01-22T11:59:31.775Z,1018.93
2016-01-22T12:00:31.826Z,1018.94
2016-01-22T12:01:31.880Z,1018.85
2016-01-22T12:02:31.961Z,1018.9
2016-01-22T12:03:31.999Z,1018.92
2016-01-22T12:04:32.048Z,1018.93
2016-01-22T12:05:32.099Z,1018.93
2016-01-22T12:06:32.166Z,1018.9
2016-01-22T12:07:32.217Z,1018.91
2016-01-22T12:08:32.266Z,1018.86